weather.gov     
National Weather Service

Terminal Aerodrome Forecast
NWS Homepage
This page is being discontinued on March 12, 2014.
The same data is available at this site. Please update your bookmarks.
Thank you, and we apologize for the inconvenience.
Please send an email to SR-SRH.Webmaster@noaa.gov with any concerns.


Current Version
Previous Version:    01  02  03  04  05  06  07  08  09  10  11  12  13  14  15  16  17  18  19  20  21  22  23  24  25  26  27  28  29  
[Printable]
677
FTUS41 KCAR 190500 RRA
TAFPQI
TAF
KPQI 190555Z 1906/2006 VRB03KT P6SM SCT025 OVC080
     FM190900 VRB03KT 5SM -SHSN OVC025
     FM191200 22004KT P6SM OVC025
     FM191400 24006KT P6SM OVC020
     FM191600 29010KT P6SM OVC020
     FM192100 32013KT P6SM OVC040
      AMD LTD TO CLD VIS AND WIND=


U.S. Dept. of Commerce
NOAA National Weather Service
1325 East West Highway
Silver Spring, MD 20910
E-mail: w-nws.webmaster@noaa.gov
Page last modified: May 16, 2007
NATIONAL WEATHER SERVICE: for Safety, for Work, for Fun - FOR LIFE